Time;durP1;ratioP1;P1;durP2;ratioP2;P2;SDS_P1;SDS_P2;PMS_P1;PMS_P2;Temp;Humidity;BMP_temperature;BMP_pressure;BME280_temperature;BME280_humidity;BME280_pressure;Samples;Min_cycle;Max_cycle;Signal;HPM_P1;HPM_P2
2023/04/25 00:02:08;;;;;;;6.17;5.67;;;;;;;7.81;100.00;99436.66;5077079;28;20231;-71
2023/04/25 00:04:33;;;;;;;6.90;6.30;;;;;;;7.77;100.00;99442.03;5069965;28;20201;-70
2023/04/25 00:07:02;;;;;;;6.87;6.27;;;;;;;7.75;100.00;99448.06;5070034;28;20627;-71
2023/04/25 00:09:27;;;;;;;6.90;6.30;;;;;;;7.74;100.00;99446.41;5071350;28;20683;-71
2023/04/25 00:11:53;;;;;;;7.37;6.67;;;;;;;7.78;100.00;99449.63;5075441;28;20310;-71
2023/04/25 00:14:18;;;;;;;7.00;6.30;;;;;;;7.75;100.00;99449.78;5088366;28;20187;-70
2023/04/25 00:16:44;;;;;;;6.40;5.90;;;;;;;7.75;100.00;99442.09;5068063;28;20701;-71
2023/04/25 00:19:09;;;;;;;7.20;6.50;;;;;;;7.74;100.00;99450.72;5069728;28;20200;-70
2023/04/25 00:21:35;;;;;;;7.10;6.50;;;;;;;7.84;100.00;99453.56;5073426;28;20355;-70
2023/04/25 00:24:00;;;;;;;7.90;7.20;;;;;;;7.80;100.00;99462.34;5074976;28;20196;-70
2023/04/25 00:26:26;;;;;;;6.93;6.33;;;;;;;7.87;100.00;99459.38;5069431;28;20195;-70
2023/04/25 00:28:52;;;;;;;7.70;6.53;;;;;;;7.91;100.00;99458.31;5087600;28;20196;-71
2023/04/25 00:31:17;;;;;;;7.83;7.03;;;;;;;7.84;100.00;99464.66;5071598;28;20629;-70
2023/04/25 00:33:42;;;;;;;7.90;7.20;;;;;;;7.82;100.00;99458.78;5076927;28;20188;-69
2023/04/25 00:36:08;;;;;;;8.00;6.27;;;;;;;7.90;100.00;99453.25;5067794;28;20296;-70
2023/04/25 00:38:34;;;;;;;6.90;6.30;;;;;;;7.92;100.00;99459.13;5067975;28;20547;-71
2023/04/25 00:40:59;;;;;;;6.87;6.27;;;;;;;7.89;100.00;99451.63;5043018;28;20729;-70
2023/04/25 00:43:26;;;;;;;6.83;6.23;;;;;;;7.93;100.00;99452.28;5064265;28;20177;-70
2023/04/25 00:45:52;;;;;;;7.77;6.10;;;;;;;7.97;100.00;99461.44;5072793;28;20177;-71
2023/04/25 00:48:18;;;;;;;9.37;6.50;;;;;;;7.90;100.00;99459.22;5075171;28;20556;-71
2023/04/25 00:50:50;;;;;;;6.90;6.30;;;;;;;8.04;100.00;99455.91;5070113;28;20259;-71
2023/04/25 00:53:16;;;;;;;6.53;6.00;;;;;;;8.01;100.00;99448.41;5084257;28;20581;-70
2023/04/25 00:55:41;;;;;;;7.37;6.67;;;;;;;7.98;100.00;99446.00;5069734;28;20202;-70
2023/04/25 00:58:06;;;;;;;7.07;6.47;;;;;;;8.07;100.00;99442.09;5069639;28;20286;-71
2023/04/25 01:00:32;;;;;;;6.37;5.87;;;;;;;8.11;100.00;99441.00;5066592;28;20648;-70
2023/04/25 01:02:58;;;;;;;6.90;6.30;;;;;;;8.03;100.00;99443.19;5086479;28;20173;-69
2023/04/25 01:05:23;;;;;;;6.97;6.37;;;;;;;8.08;100.00;99449.69;5074866;28;20200;-69
2023/04/25 01:07:49;;;;;;;7.17;6.47;;;;;;;8.13;100.00;99446.88;5074680;28;20189;-70
2023/04/25 01:10:15;;;;;;;7.33;6.63;;;;;;;8.21;100.00;99444.75;5065876;28;20215;-70
2023/04/25 01:12:40;;;;;;;6.43;5.90;;;;;;;8.00;100.00;99451.03;5088647;28;20177;-71
2023/04/25 01:15:06;;;;;;;7.93;6.30;;;;;;;8.10;100.00;99446.22;5074849;28;20177;-71
2023/04/25 01:17:33;;;;;;;8.47;6.57;;;;;;;7.97;100.00;99446.09;5075610;28;20185;-71
2023/04/25 01:19:59;;;;;;;6.40;5.80;;;;;;;8.03;100.00;99453.44;5070127;28;20185;-70
2023/04/25 01:22:25;;;;;;;6.23;5.73;;;;;;;8.15;100.00;99447.63;5058091;28;20254;-70
2023/04/25 01:24:51;;;;;;;7.00;6.30;;;;;;;8.13;100.00;99446.06;5073973;28;20180;-70
2023/04/25 01:30:38;;;;;;;7.00;6.40;;;;;;;8.16;100.00;99446.72;5066524;28;20681;-71
2023/04/25 01:33:05;;;;;;;6.90;6.30;;;;;;;8.21;100.00;99443.91;5085271;28;20255;-70
2023/04/25 01:35:31;;;;;;;6.87;6.20;;;;;;;8.24;100.00;99443.75;5073529;28;20180;-71
2023/04/25 01:37:57;;;;;;;6.93;6.23;;;;;;;8.23;100.00;99439.53;5073430;28;20208;-71
2023/04/25 01:40:23;;;;;;;7.33;6.73;;;;;;;8.22;100.00;99446.41;5066681;28;20259;-70
2023/04/25 01:42:49;;;;;;;6.83;6.23;;;;;;;8.26;100.00;99448.78;5080745;28;20205;-71
2023/04/25 01:45:15;;;;;;;7.33;6.73;;;;;;;8.26;100.00;99447.06;5069992;28;20222;-70
2023/04/25 01:47:42;;;;;;;6.80;6.10;;;;;;;8.17;100.00;99445.00;5074274;28;20616;-70
2023/04/25 01:50:08;;;;;;;8.40;7.70;;;;;;;8.10;100.00;99441.94;5064565;28;20221;-69
2023/04/25 01:52:34;;;;;;;8.70;7.23;;;;;;;8.11;100.00;99438.44;5073119;28;20192;-70
2023/04/25 01:55:01;;;;;;;6.73;6.23;;;;;;;8.05;100.00;99438.78;5073350;28;20509;-70
2023/04/25 01:57:26;;;;;;;7.90;7.20;;;;;;;8.09;100.00;99442.84;5073410;28;20254;-69
2023/04/25 01:59:58;;;;;;;7.17;6.50;;;;;;;8.12;100.00;99446.97;5073519;28;20185;-70
2023/04/25 02:02:23;;;;;;;7.03;6.27;;;;;;;8.12;100.00;99452.91;5063108;28;20232;-71
2023/04/25 02:04:48;;;;;;;9.77;6.47;;;;;;;8.06;100.00;99445.56;5073756;28;20201;-70
2023/04/25 02:07:14;;;;;;;7.07;6.47;;;;;;;8.11;100.00;99437.63;5074120;28;20541;-70
2023/04/25 02:09:39;;;;;;;7.30;6.60;;;;;;;7.99;100.00;99442.53;5071719;28;20236;-70
2023/04/25 02:12:04;;;;;;;10.33;7.27;;;;;;;7.98;100.00;99440.06;5079307;28;20314;-70
2023/04/25 02:14:30;;;;;;;7.43;6.83;;;;;;;7.91;100.00;99444.66;5073600;28;20188;-70
2023/04/25 02:16:55;;;;;;;7.37;6.77;;;;;;;7.92;100.00;99441.19;5073696;28;20229;-71
2023/04/25 02:19:20;;;;;;;7.50;6.80;;;;;;;7.89;100.00;99444.75;5073520;28;20209;-70
2023/04/25 02:21:46;;;;;;;8.10;7.30;;;;;;;7.96;100.00;99445.25;5076972;28;20579;-70
2023/04/25 02:24:11;;;;;;;8.10;7.40;;;;;;;7.94;100.00;99447.06;5075739;28;20173;-69
2023/04/25 02:26:36;;;;;;;7.97;7.23;;;;;;;7.87;100.00;99441.44;5073655;28;20250;-69
2023/04/25 02:29:01;;;;;;;7.90;7.20;;;;;;;7.82;100.00;99440.88;5085499;28;20222;-70
2023/04/25 02:31:27;;;;;;;7.87;7.17;;;;;;;7.79;100.00;99435.09;5064990;28;20234;-70
2023/04/25 02:33:52;;;;;;;8.20;7.40;;;;;;;7.75;100.00;99436.97;5070831;28;20181;-70
2023/04/25 02:36:17;;;;;;;8.17;7.37;;;;;;;7.73;100.00;99433.69;5082504;28;20187;-70
2023/04/25 02:38:43;;;;;;;8.57;7.70;;;;;;;7.69;100.00;99435.59;5077684;28;20195;-70
2023/04/25 02:41:08;;;;;;;8.97;8.17;;;;;;;7.62;100.00;99439.38;5065064;28;20240;-70
2023/04/25 02:43:33;;;;;;;8.30;7.50;;;;;;;7.64;100.00;99441.84;5080072;28;20176;-70
2023/04/25 02:45:58;;;;;;;9.47;8.67;;;;;;;7.55;100.00;99438.88;5073053;28;20658;-70
2023/04/25 02:48:24;;;;;;;9.77;8.37;;;;;;;7.49;100.00;99434.09;5071486;28;20275;-70
2023/04/25 02:50:49;;;;;;;10.70;8.07;;;;;;;7.47;100.00;99441.00;5068974;28;20231;-70
2023/04/25 02:53:15;;;;;;;9.10;8.20;;;;;;;7.40;100.00;99445.59;5071654;28;20185;-70
2023/04/25 02:55:40;;;;;;;9.60;8.53;;;;;;;7.48;100.00;99442.66;5071761;28;20176;-70
2023/04/25 02:58:05;;;;;;;9.07;8.17;;;;;;;7.51;100.00;99439.13;5072803;28;20200;-70
2023/04/25 03:00:32;;;;;;;10.63;8.20;;;;;;;7.53;100.00;99437.28;5055708;28;20344;-70
2023/04/25 03:02:58;;;;;;;9.60;8.63;;;;;;;7.48;100.00;99444.38;5084269;28;20253;-70
2023/04/25 03:05:23;;;;;;;10.00;8.93;;;;;;;7.48;100.00;99444.38;5079641;28;20275;-70
2023/04/25 03:07:48;;;;;;;9.87;8.97;;;;;;;7.45;100.00;99450.50;5077667;28;20219;-70
2023/04/25 03:10:14;;;;;;;10.13;9.13;;;;;;;7.45;100.00;99445.38;5062805;28;20253;-70
2023/04/25 03:12:39;;;;;;;10.10;9.10;;;;;;;7.41;100.00;99437.03;5086205;28;20183;-70
2023/04/25 03:15:05;;;;;;;11.33;10.30;;;;;;;7.47;100.00;99446.13;5061679;28;20177;-70
2023/04/25 03:17:30;;;;;;;10.23;9.27;;;;;;;7.38;100.00;99433.78;5068247;28;20201;-70
2023/04/25 03:19:55;;;;;;;10.50;9.60;;;;;;;7.25;100.00;99431.88;5072190;28;20654;-69
2023/04/25 03:22:21;;;;;;;11.07;9.23;;;;;;;7.13;100.00;99424.00;5077560;28;20234;-70
2023/04/25 03:24:47;;;;;;;9.30;8.43;;;;;;;7.07;100.00;99435.38;5071718;28;20173;-69
2023/04/25 03:27:13;;;;;;;9.73;8.57;;;;;;;7.17;100.00;99435.72;5071997;28;20194;-69
2023/04/25 03:29:38;;;;;;;10.63;9.53;;;;;;;7.26;100.00;99432.72;5067380;28;20196;-70
2023/04/25 03:32:04;;;;;;;11.70;9.83;;;;;;;7.34;100.00;99432.31;5020448;28;20282;-70
2023/04/25 03:34:29;;;;;;;10.63;9.53;;;;;;;7.36;100.00;99433.88;5060183;28;20193;-69
2023/04/25 03:36:55;;;;;;;10.63;9.60;;;;;;;7.34;100.00;99437.44;5072208;28;20188;-69
2023/04/25 03:39:20;;;;;;;11.53;10.10;;;;;;;7.31;100.00;99440.16;5072023;28;20176;-69
2023/04/25 03:41:45;;;;;;;12.73;10.53;;;;;;;7.27;100.00;99437.75;5075266;28;20231;-69
2023/04/25 03:44:11;;;;;;;18.97;11.97;;;;;;;6.95;100.00;99445.31;5073874;28;20177;-70
2023/04/25 03:46:36;;;;;;;13.17;11.50;;;;;;;6.90;100.00;99452.38;5071360;28;20176;-70
2023/04/25 03:49:01;;;;;;;17.23;13.07;;;;;;;6.94;100.00;99446.22;5084018;28;20226;-70
2023/04/25 03:51:26;;;;;;;16.53;13.43;;;;;;;6.85;100.00;99445.88;5072606;28;20260;-70
2023/04/25 03:53:52;;;;;;;16.60;12.90;;;;;;;6.83;100.00;99450.22;5076167;28;20169;-69
2023/04/25 03:56:17;;;;;;;13.83;11.17;;;;;;;6.94;100.00;99451.31;5072425;28;20177;-68
2023/04/25 03:58:43;;;;;;;13.17;11.70;;;;;;;6.82;100.00;99458.78;5071544;28;20191;-70
2023/04/25 04:01:08;;;;;;;14.30;11.50;;;;;;;6.79;100.00;99459.78;5056043;28;20231;-70
2023/04/25 04:03:35;;;;;;;16.90;12.07;;;;;;;6.70;100.00;99457.66;5079855;28;20568;-70
2023/04/25 04:06:01;;;;;;;14.33;12.83;;;;;;;6.75;100.00;99458.28;5071050;28;20204;-69
2023/04/25 04:08:26;;;;;;;15.53;12.20;;;;;;;6.87;100.00;99467.06;5071490;28;20238;-69
2023/04/25 04:10:51;;;;;;;13.53;11.57;;;;;;;6.99;100.00;99456.22;5076060;28;20231;-69
2023/04/25 04:13:17;;;;;;;16.17;12.47;;;;;;;6.96;100.00;99464.06;5077273;28;20181;-68
2023/04/25 04:15:42;;;;;;;15.57;11.90;;;;;;;7.05;100.00;99467.88;5071662;28;20611;-69
2023/04/25 04:18:07;;;;;;;15.47;13.03;;;;;;;6.90;100.00;99474.59;5071236;28;20181;-70
2023/04/25 04:20:33;;;;;;;14.70;11.63;;;;;;;6.73;100.00;99475.41;5064516;28;20228;-69
2023/04/25 04:22:58;;;;;;;16.67;13.23;;;;;;;6.79;100.00;99478.47;5082850;28;20278;-69
2023/04/25 04:25:24;;;;;;;16.03;12.97;;;;;;;6.87;100.00;99479.84;5071028;28;20212;-69
2023/04/25 04:27:54;;;;;;;16.37;12.13;;;;;;;6.92;100.00;99485.53;5071217;28;20203;-70
2023/04/25 04:30:19;;;;;;;16.23;12.50;;;;;;;6.85;100.00;99491.88;5062910;28;20204;-70
2023/04/25 04:32:45;;;;;;;13.97;11.90;;;;;;;6.88;100.00;99499.38;5075885;28;20168;-70
2023/04/25 04:35:10;;;;;;;15.00;11.60;;;;;;;6.87;100.00;99496.03;5078665;28;20195;-70
2023/04/25 04:37:36;;;;;;;16.17;11.33;;;;;;;6.82;100.00;99500.50;5071372;28;20180;-69
2023/04/25 04:40:04;;;;;;;14.30;11.13;;;;;;;6.74;100.00;99502.63;5070352;28;20260;-69
2023/04/25 04:42:30;;;;;;;12.70;11.40;;;;;;;6.71;100.00;99503.59;5086299;28;20192;-69
2023/04/25 04:44:55;;;;;;;15.10;12.13;;;;;;;6.81;100.00;99496.31;5071490;28;20191;-70
2023/04/25 04:47:23;;;;;;;15.30;10.70;;;;;;;6.49;100.00;99490.16;5071516;28;20193;-70
2023/04/25 04:49:48;;;;;;;14.00;8.53;;;;;;;6.36;100.00;99492.50;5071377;28;20200;-70
2023/04/25 04:52:14;;;;;;;15.87;8.07;;;;;;;6.12;100.00;99490.19;5076271;28;20574;-70
2023/04/25 04:54:39;;;;;;;13.43;8.67;;;;;;;6.08;100.00;99502.25;5071395;28;20191;-68
2023/04/25 04:57:04;;;;;;;17.53;8.90;;;;;;;6.12;100.00;99506.31;5070483;28;20185;-69
2023/04/25 04:59:30;;;;;;;13.27;8.77;;;;;;;6.19;100.00;99508.59;5071136;28;20733;-69
2023/04/25 05:01:55;;;;;;;17.47;9.57;;;;;;;6.10;100.00;99504.72;5075754;28;20305;-70
2023/04/25 05:04:20;;;;;;;12.97;7.97;;;;;;;6.08;100.00;99512.47;5071862;28;20685;-70
2023/04/25 05:06:45;;;;;;;14.97;7.77;;;;;;;6.04;100.00;99522.88;5070828;28;20205;-70
2023/04/25 05:09:12;;;;;;;13.73;7.83;;;;;;;6.10;100.00;99523.44;5069377;28;20247;-70
2023/04/25 05:11:37;;;;;;;16.70;8.57;;;;;;;6.35;100.00;99526.59;5083049;28;20223;-71
2023/04/25 05:14:03;;;;;;;14.27;7.70;;;;;;;6.54;100.00;99534.25;5078962;28;20180;-69
2023/04/25 05:16:28;;;;;;;17.90;8.37;;;;;;;6.75;100.00;99533.22;5070717;28;20191;-72
2023/04/25 05:18:53;;;;;;;19.17;9.23;;;;;;;6.83;100.00;99530.28;5071217;28;20188;-73
2023/04/25 05:21:19;;;;;;;16.47;8.90;;;;;;;7.06;100.00;99530.91;5070709;28;20235;-70
2023/04/25 05:23:44;;;;;;;13.63;8.03;;;;;;;7.17;100.00;99528.66;5084839;28;20267;-70
2023/04/25 05:26:13;;;;;;;15.67;8.27;;;;;;;7.32;100.00;99533.88;5071049;28;20234;-69
2023/04/25 05:28:42;;;;;;;18.77;8.37;;;;;;;7.34;100.00;99537.22;5069372;28;20284;-70
2023/04/25 05:31:09;;;;;;;12.93;8.47;;;;;;;7.42;100.00;99540.22;5071257;28;20220;-70
2023/04/25 05:33:35;;;;;;;12.70;7.43;;;;;;;7.32;100.00;99533.88;5064260;28;20177;-70
2023/04/25 05:36:00;;;;;;;11.80;6.83;;;;;;;7.26;100.00;99538.41;5074652;28;20184;-71
2023/04/25 05:38:25;;;;;;;17.07;8.33;;;;;;;7.50;100.00;99534.72;5074296;28;20180;-69
2023/04/25 05:40:51;;;;;;;15.80;7.47;;;;;;;7.68;100.00;99536.31;5070075;28;20212;-69
2023/04/25 05:43:16;;;;;;;12.03;7.77;;;;;;;7.77;100.00;99544.44;5083636;28;20177;-69
2023/04/25 05:45:41;;;;;;;15.97;8.27;;;;;;;7.93;100.00;99547.03;5074331;28;20180;-70
2023/04/25 05:48:07;;;;;;;14.90;6.97;;;;;;;7.80;100.00;99540.00;5074517;28;20187;-69
2023/04/25 05:50:32;;;;;;;11.70;7.43;;;;;;;7.69;100.00;99534.59;5065260;28;20236;-70
2023/04/25 05:52:57;;;;;;;10.77;6.37;;;;;;;7.70;100.00;99541.34;5065025;28;20564;-70
2023/04/25 05:55:24;;;;;;;9.93;7.00;;;;;;;7.65;100.00;99536.47;5073080;28;20219;-71
2023/04/25 05:57:49;;;;;;;11.27;6.73;;;;;;;7.69;100.00;99544.81;5069464;28;20201;-69
2023/04/25 06:00:15;;;;;;;11.07;7.00;;;;;;;7.89;100.00;99539.50;5064624;28;20290;-69
2023/04/25 06:02:41;;;;;;;12.70;7.27;;;;;;;7.98;100.00;99542.50;5088017;28;20727;-69
2023/04/25 06:05:07;;;;;;;15.97;7.83;;;;;;;8.02;100.00;99547.34;5073597;28;20192;-69
2023/04/25 06:07:33;;;;;;;11.70;7.10;;;;;;;8.08;100.00;99541.91;5074266;28;20306;-69
2023/04/25 06:09:59;;;;;;;10.47;6.93;;;;;;;8.34;100.00;99544.81;5073570;28;20763;-69
2023/04/25 06:12:24;;;;;;;12.60;6.53;;;;;;;8.29;100.00;99548.56;5079166;28;20228;-69
2023/04/25 06:14:49;;;;;;;10.03;6.53;;;;;;;8.53;100.00;99549.81;5072280;28;20547;-69
2023/04/25 06:17:15;;;;;;;11.77;6.37;;;;;;;8.61;100.00;99543.41;5073901;28;20260;-69
2023/04/25 06:19:40;;;;;;;13.63;6.87;;;;;;;8.50;100.00;99544.84;5071681;28;20317;-70
2023/04/25 06:22:07;;;;;;;8.03;5.77;;;;;;;8.19;100.00;99543.91;5070360;28;20668;-70
2023/04/25 06:24:32;;;;;;;13.43;6.73;;;;;;;8.32;100.00;99551.78;5074630;28;20654;-69
2023/04/25 06:26:57;;;;;;;13.27;6.83;;;;;;;8.48;100.00;99559.47;5073286;28;20272;-69
2023/04/25 06:29:23;;;;;;;9.70;5.97;;;;;;;8.86;100.00;99569.34;5071797;28;20201;-70
2023/04/25 06:31:48;;;;;;;8.87;5.23;;;;;;;8.94;100.00;99568.91;5068048;28;20220;-69
2023/04/25 06:34:13;;;;;;;9.50;4.87;;;;;;;9.07;100.00;99568.22;5073909;28;20662;-69
2023/04/25 06:36:39;;;;;;;7.73;5.47;;;;;;;9.49;100.00;99571.81;5073363;28;20196;-69
2023/04/25 06:39:04;;;;;;;11.60;6.07;;;;;;;10.33;100.00;99571.06;5076886;28;20176;-71
2023/04/25 06:41:30;;;;;;;14.23;5.70;;;;;;;10.18;100.00;99565.13;5064548;28;20231;-72
2023/04/25 06:43:55;;;;;;;12.13;5.93;;;;;;;9.87;100.00;99557.63;5087719;28;20180;-74
2023/04/25 06:46:20;;;;;;;11.30;6.07;;;;;;;9.63;100.00;99558.97;5071005;28;20227;-75
2023/04/25 06:48:46;;;;;;;10.60;6.13;;;;;;;9.49;100.00;99556.41;5071552;28;20231;-72
2023/04/25 06:51:13;;;;;;;10.80;5.93;;;;;;;9.99;100.00;99562.00;5072047;28;20224;-72
2023/04/25 06:53:38;;;;;;;10.73;5.33;;;;;;;9.93;100.00;99557.25;5071433;28;20211;-73
2023/04/25 06:56:04;;;;;;;13.47;5.70;;;;;;;10.40;100.00;99565.56;5071889;28;20300;-69
2023/04/25 06:58:29;;;;;;;12.40;5.87;;;;;;;10.87;100.00;99568.63;5072813;28;20201;-69
2023/04/25 07:00:55;;;;;;;15.33;5.13;;;;;;;10.63;100.00;99567.50;5053801;28;20228;-68
2023/04/25 07:03:20;;;;;;;10.43;4.73;;;;;;;10.53;100.00;99576.72;5081574;28;20225;-67
2023/04/25 07:05:45;;;;;;;10.10;4.70;;;;;;;10.05;100.00;99576.22;5079211;28;20208;-67
2023/04/25 07:08:11;;;;;;;16.10;5.70;;;;;;;9.43;100.00;99578.13;5072423;28;20249;-69
2023/04/25 07:10:36;;;;;;;9.63;5.03;;;;;;;9.52;100.00;99585.28;5066614;28;20225;-68
2023/04/25 07:13:01;;;;;;;8.30;5.20;;;;;;;9.94;100.00;99590.53;5084915;28;20176;-68
2023/04/25 07:15:27;;;;;;;9.27;5.13;;;;;;;10.15;100.00;99585.03;5077736;28;20234;-67
2023/04/25 07:17:52;;;;;;;8.97;4.17;;;;;;;10.09;100.00;99586.22;5082681;28;20176;-68
2023/04/25 07:20:17;;;;;;;7.53;5.00;;;;;;;10.67;100.00;99586.16;5073728;28;20184;-67
2023/04/25 07:22:43;;;;;;;8.27;4.47;;;;;;;11.50;100.00;99587.66;5070616;28;20195;-66
2023/04/25 07:25:09;;;;;;;8.37;4.30;;;;;;;11.95;96.48;99585.47;5070126;28;20169;-67
2023/04/25 07:27:34;;;;;;;7.03;4.87;;;;;;;12.17;95.47;99589.19;5072483;28;20513;-67
2023/04/25 07:30:00;;;;;;;8.00;3.73;;;;;;;12.72;93.08;99578.47;5070931;28;20200;-68
2023/04/25 07:32:26;;;;;;;11.90;4.33;;;;;;;13.92;82.87;99581.72;5023161;28;20246;-68
2023/04/25 07:34:52;;;;;;;13.30;4.00;;;;;;;14.72;75.01;99585.00;5070032;28;20189;-68
2023/04/25 07:37:18;;;;;;;9.17;3.90;;;;;;;14.73;68.54;99578.06;5071951;28;20199;-68
2023/04/25 07:39:45;;;;;;;8.70;4.13;;;;;;;13.58;72.36;99580.88;5071529;28;20184;-68
2023/04/25 07:42:11;;;;;;;7.93;3.63;;;;;;;13.30;78.54;99582.91;5077435;28;20250;-68
2023/04/25 07:44:38;;;;;;;10.43;4.53;;;;;;;12.89;84.16;99585.81;5070749;28;20270;-67
2023/04/25 07:47:06;;;;;;;7.87;4.10;;;;;;;13.37;84.93;99584.97;5083988;28;20187;-69
2023/04/25 07:49:32;;;;;;;8.17;3.50;;;;;;;13.50;81.27;99596.97;5071374;28;20216;-69
2023/04/25 07:51:57;;;;;;;5.27;2.90;;;;;;;12.89;76.69;99597.94;5075749;28;20216;-69
2023/04/25 07:54:23;;;;;;;4.00;2.67;;;;;;;12.60;77.75;99603.41;5069944;28;20181;-68
2023/04/25 07:56:48;;;;;;;3.63;2.13;;;;;;;12.86;74.15;99611.03;5071517;28;20643;-67
2023/04/25 07:59:13;;;;;;;3.20;1.73;;;;;;;13.03;70.72;99615.00;5070364;28;20275;-67
2023/04/25 08:01:39;;;;;;;4.93;2.23;;;;;;;12.51;69.10;99624.69;5073940;28;20278;-67
2023/04/25 08:04:05;;;;;;;4.23;1.80;;;;;;;12.33;72.74;99616.47;5075157;28;20270;-67
2023/04/25 08:06:31;;;;;;;4.87;2.00;;;;;;;11.98;76.44;99627.47;5071720;28;20173;-68
2023/04/25 08:08:56;;;;;;;3.07;2.20;;;;;;;11.44;83.03;99629.28;5071113;28;20231;-68
2023/04/25 08:11:21;;;;;;;7.67;2.27;;;;;;;11.56;84.07;99631.06;5071328;28;20224;-67
2023/04/25 08:13:46;;;;;;;5.13;2.20;;;;;;;11.75;80.94;99628.06;5076887;28;20203;-67
2023/04/25 08:16:12;;;;;;;3.30;2.23;;;;;;;12.09;84.10;99643.03;5071694;28;20187;-67
2023/04/25 08:18:37;;;;;;;3.97;2.20;;;;;;;12.29;77.19;99633.91;5071030;28;20532;-67
2023/04/25 08:21:03;;;;;;;4.03;1.90;;;;;;;12.09;77.05;99643.88;5068828;28;20258;-66
2023/04/25 08:23:28;;;;;;;3.57;2.10;;;;;;;12.43;78.58;99640.72;5088805;28;20190;-68
2023/04/25 08:25:53;;;;;;;3.67;2.20;;;;;;;14.02;67.19;99639.53;5074012;28;20180;-60
2023/04/25 08:28:19;;;;;;;4.57;2.10;;;;;;;14.41;61.68;99640.94;5071154;28;20238;-60
2023/04/25 08:30:44;;;;;;;4.23;2.07;;;;;;;14.08;59.79;99645.19;5066087;28;20259;-61
2023/04/25 08:33:10;;;;;;;3.37;1.83;;;;;;;15.32;57.00;99647.50;5072426;28;20181;-60
2023/04/25 08:35:35;;;;;;;4.07;1.87;;;;;;;16.30;49.55;99649.81;5067931;28;20703;-60
2023/04/25 08:38:01;;;;;;;2.67;1.37;;;;;;;15.84;51.64;99659.75;5074294;28;20263;-60
2023/04/25 08:40:29;;;;;;;2.60;1.77;;;;;;;14.91;53.46;99663.78;5063539;28;20598;-62
2023/04/25 08:42:57;;;;;;;4.77;2.03;;;;;;;14.55;53.65;99668.31;5083128;28;20290;-61
2023/04/25 08:45:22;;;;;;;3.70;1.80;;;;;;;14.96;54.22;99659.91;5070819;28;20173;-61
2023/04/25 08:47:51;;;;;;;3.77;2.07;;;;;;;16.09;52.64;99668.06;5071275;28;20195;-61
2023/04/25 08:50:17;;;;;;;4.13;2.00;;;;;;;16.38;49.16;99668.13;5062463;28;20204;-61
2023/04/25 08:52:47;;;;;;;6.17;2.30;;;;;;;15.49;50.19;99672.03;5069520;28;20183;-66
2023/04/25 08:55:13;;;;;;;4.93;2.20;;;;;;;14.58;54.01;99670.69;5068234;28;20189;-67
2023/04/25 08:57:42;;;;;;;5.03;2.23;;;;;;;13.52;61.13;99676.00;5070912;28;20184;-65
2023/04/25 09:00:09;;;;;;;3.83;2.33;;;;;;;13.26;67.98;99683.06;5073161;28;20177;-65
2023/04/25 09:02:35;;;;;;;4.43;2.50;;;;;;;12.40;70.97;99690.75;5091437;28;20184;-65
2023/04/25 09:05:02;;;;;;;4.07;2.57;;;;;;;11.34;83.69;99692.59;5068740;28;20257;-66
2023/04/25 09:07:28;;;;;;;2.83;2.23;;;;;;;11.34;86.83;99698.59;5072270;28;20540;-68
2023/04/25 09:09:54;;;;;;;5.40;2.47;;;;;;;11.26;81.69;99698.25;5078581;28;20256;-64
2023/04/25 09:12:19;;;;;;;4.13;2.70;;;;;;;12.08;82.50;99701.50;5086314;28;20671;-66
2023/04/25 09:15:02;;;;;;;4.50;2.37;;;;;;;14.35;63.07;99694.81;5074721;28;20184;-65
2023/04/25 09:17:28;;;;;;;3.97;2.20;;;;;;;15.13;54.13;99700.00;5073452;28;20196;-66
2023/04/25 09:19:54;;;;;;;6.03;2.43;;;;;;;14.35;52.86;99701.72;5074354;28;20208;-67
2023/04/25 09:22:22;;;;;;;6.40;2.60;;;;;;;14.68;55.10;99715.63;5079801;28;20308;-66
2023/04/25 09:24:48;;;;;;;3.97;2.50;;;;;;;14.21;57.48;99713.13;5084971;28;20263;-66
2023/04/25 09:27:19;;;;;;;3.50;2.40;;;;;;;14.64;58.90;99719.38;5074883;28;20255;-67
2023/04/25 09:29:44;;;;;;;5.97;2.80;;;;;;;14.92;56.52;99714.66;5074711;28;20192;-67
2023/04/25 09:32:22;;;;;;;2.67;2.40;;;;;;;15.61;53.18;99722.06;5065068;28;20266;-66
2023/04/25 09:34:55;;;;;;;4.57;2.60;;;;;;;16.11;51.19;99720.63;5073160;28;20181;-66
2023/04/25 09:37:26;;;;;;;5.57;3.03;;;;;;;16.87;48.69;99725.41;5072580;28;20249;-67
2023/04/25 09:39:54;;;;;;;6.67;2.73;;;;;;;15.57;49.15;99733.63;5074006;28;20554;-67
2023/04/25 09:42:28;;;;;;;6.00;2.90;;;;;;;14.71;49.32;99736.13;5078452;28;20466;-67
2023/04/25 09:44:55;;;;;;;3.53;2.60;;;;;;;13.37;60.73;99741.66;5074279;28;20173;-60
2023/04/25 09:47:23;;;;;;;6.20;3.03;;;;;;;12.87;65.05;99736.59;5072683;28;20669;-68
2023/04/25 09:49:49;;;;;;;5.43;3.20;;;;;;;13.10;65.36;99747.88;5074467;28;20204;-69
2023/04/25 09:52:18;;;;;;;6.83;3.13;;;;;;;13.70;63.23;99746.19;5079231;28;20227;-68
2023/04/25 09:54:47;;;;;;;5.73;4.10;;;;;;;13.00;62.61;99745.13;5073994;28;20180;-69
2023/04/25 09:57:17;;;;;;;5.00;3.03;;;;;;;12.03;68.14;99762.88;5061001;28;20389;-69
2023/04/25 09:59:48;;;;;;;6.57;3.83;;;;;;;11.81;72.04;99760.84;5073696;28;20294;-69
2023/04/25 10:02:20;;;;;;;6.50;4.00;;;;;;;11.34;74.71;99764.69;5079582;28;20227;-68
2023/04/25 10:04:51;;;;;;;8.97;7.57;;;;;;;11.54;77.70;99764.25;5073345;28;20279;-67
2023/04/25 10:07:18;;;;;;;5.93;3.63;;;;;;;12.17;77.05;99764.53;5082840;28;20172;-68
2023/04/25 10:09:47;;;;;;;6.67;4.37;;;;;;;11.93;75.97;99762.63;5076228;28;20251;-67
2023/04/25 10:12:13;;;;;;;6.90;4.70;;;;;;;11.82;79.63;99761.66;5079124;28;20587;-68
2023/04/25 10:14:39;;;;;;;5.20;3.87;;;;;;;11.89;76.36;99773.22;5073928;28;20236;-68
2023/04/25 10:17:05;;;;;;;5.77;4.30;;;;;;;11.96;86.31;99774.50;5072547;28;20191;-68
2023/04/25 10:19:31;;;;;;;5.87;4.53;;;;;;;12.29;84.66;99777.53;5072918;28;20192;-68
2023/04/25 10:22:11;;;;;;;5.07;4.00;;;;;;;12.64;78.81;99776.88;5078099;28;20303;-68
2023/04/25 10:24:38;;;;;;;6.63;3.83;;;;;;;12.73;71.16;99777.09;5083405;28;20187;-68
2023/04/25 10:27:04;;;;;;;5.60;3.63;;;;;;;12.97;64.78;99768.56;5067064;28;20191;-67
2023/04/25 10:29:29;;;;;;;7.97;3.80;;;;;;;13.32;61.89;99772.19;5069442;28;20694;-68
2023/04/25 10:31:55;;;;;;;5.60;3.73;;;;;;;13.45;59.36;99772.16;5058124;28;20220;-68
2023/04/25 10:34:25;;;;;;;5.50;3.43;;;;;;;12.67;61.08;99776.69;5074391;28;20185;-67
2023/04/25 10:36:52;;;;;;;6.63;3.97;;;;;;;12.05;69.83;99778.22;5072094;28;20173;-68
2023/04/25 10:39:26;;;;;;;4.67;3.67;;;;;;;11.94;71.11;99778.91;5071194;28;20510;-67
2023/04/25 10:42:02;;;;;;;7.40;4.43;;;;;;;12.04;80.23;99784.31;5064071;28;20265;-67
2023/04/25 10:44:28;;;;;;;6.60;4.37;;;;;;;11.72;79.81;99782.03;5059886;28;20277;-67
2023/04/25 10:47:00;;;;;;;9.50;4.67;;;;;;;11.62;86.67;99774.06;5079501;28;20177;-69
2023/04/25 10:49:36;;;;;;;6.50;4.30;;;;;;;11.89;85.07;99780.94;5072708;28;20200;-67
2023/04/25 10:52:14;;;;;;;5.77;4.47;;;;;;;12.02;82.38;99784.41;5064604;28;20289;-68
2023/04/25 10:54:47;;;;;;;8.60;4.10;;;;;;;12.24;79.32;99781.25;5073205;28;20212;-68
2023/04/25 10:57:41;;;;;;;7.23;4.53;;;;;;;12.30;78.80;99782.56;5072978;28;20188;-69
2023/04/25 11:00:10;;;;;;;8.10;4.37;;;;;;;12.65;73.39;99781.13;5050967;28;20600;-68
2023/04/25 11:02:38;;;;;;;9.10;3.80;;;;;;;13.07;72.23;99764.44;5071122;28;20216;-69
2023/04/25 11:05:03;;;;;;;10.40;4.37;;;;;;;13.30;65.47;99774.06;5072656;28;20242;-69
2023/04/25 11:07:49;;;;;;;6.33;3.93;;;;;;;13.38;65.20;99775.19;5073360;28;20261;-69
2023/04/25 11:10:14;;;;;;;6.33;4.13;;;;;;;12.97;66.67;99783.25;5063917;28;20774;-68
2023/04/25 11:12:40;;;;;;;6.37;3.60;;;;;;;13.43;65.13;99774.03;5086628;28;20206;-67
2023/04/25 11:15:07;;;;;;;5.67;3.60;;;;;;;13.89;60.00;99775.84;5069013;28;20543;-68
2023/04/25 11:17:33;;;;;;;9.60;4.03;;;;;;;13.92;55.96;99779.97;5092404;28;20179;-67
2023/04/25 11:19:58;;;;;;;9.77;3.40;;;;;;;13.72;55.14;99784.84;5072564;28;20185;-67
2023/04/25 11:22:24;;;;;;;6.47;3.77;;;;;;;13.32;55.88;99785.09;5077631;28;20578;-68
2023/04/25 11:24:50;;;;;;;6.00;3.33;;;;;;;13.06;57.26;99787.75;5072316;28;20188;-68
2023/04/25 11:27:16;;;;;;;5.20;3.17;;;;;;;12.47;62.20;99803.84;5072605;28;20268;-68
2023/04/25 11:29:41;;;;;;;7.67;3.50;;;;;;;12.22;66.15;99806.28;5071683;28;20284;-67